sensor_id;sensor_type;location;lat;lon;timestamp;P1;durP1;ratioP1;P2;durP2;ratioP2
5608;SDS011;2826;51.354;9.588;2022-12-01T00:01:51;66.87;;;27.63;;
5608;SDS011;2826;51.354;9.588;2022-12-01T00:04:18;71.53;;;26.40;;
5608;SDS011;2826;51.354;9.588;2022-12-01T00:06:47;76.30;;;31.40;;
5608;SDS011;2826;51.354;9.588;2022-12-01T00:09:13;65.33;;;28.40;;
5608;SDS011;2826;51.354;9.588;2022-12-01T00:11:59;69.77;;;28.73;;
5608;SDS011;2826;51.354;9.588;2022-12-01T00:14:26;62.30;;;25.50;;
5608;SDS011;2826;51.354;9.588;2022-12-01T00:16:53;66.07;;;26.50;;
5608;SDS011;2826;51.354;9.588;2022-12-01T00:19:23;67.43;;;28.27;;
5608;SDS011;2826;51.354;9.588;2022-12-01T00:21:50;62.33;;;26.00;;
5608;SDS011;2826;51.354;9.588;2022-12-01T00:24:17;65.10;;;28.07;;
5608;SDS011;2826;51.354;9.588;2022-12-01T00:26:44;70.83;;;29.57;;
5608;SDS011;2826;51.354;9.588;2022-12-01T00:29:12;67.20;;;27.93;;
5608;SDS011;2826;51.354;9.588;2022-12-01T00:31:40;68.97;;;27.90;;
5608;SDS011;2826;51.354;9.588;2022-12-01T00:34:08;70.83;;;28.90;;
5608;SDS011;2826;51.354;9.588;2022-12-01T00:36:46;70.93;;;27.73;;
5608;SDS011;2826;51.354;9.588;2022-12-01T00:39:13;70.13;;;27.30;;
5608;SDS011;2826;51.354;9.588;2022-12-01T00:41:40;86.43;;;29.57;;
5608;SDS011;2826;51.354;9.588;2022-12-01T00:44:08;69.17;;;27.50;;
5608;SDS011;2826;51.354;9.588;2022-12-01T00:46:36;65.90;;;28.00;;
5608;SDS011;2826;51.354;9.588;2022-12-01T00:49:03;70.40;;;27.27;;
5608;SDS011;2826;51.354;9.588;2022-12-01T00:51:30;76.50;;;28.40;;
5608;SDS011;2826;51.354;9.588;2022-12-01T00:53:57;74.93;;;27.47;;
5608;SDS011;2826;51.354;9.588;2022-12-01T00:56:24;65.63;;;26.70;;
5608;SDS011;2826;51.354;9.588;2022-12-01T00:58:51;68.73;;;27.00;;
5608;SDS011;2826;51.354;9.588;2022-12-01T01:01:18;65.23;;;25.90;;
5608;SDS011;2826;51.354;9.588;2022-12-01T01:03:48;69.27;;;27.40;;
5608;SDS011;2826;51.354;9.588;2022-12-01T01:06:15;75.80;;;27.20;;
5608;SDS011;2826;51.354;9.588;2022-12-01T01:08:43;77.13;;;27.10;;
5608;SDS011;2826;51.354;9.588;2022-12-01T01:11:10;68.90;;;27.53;;
5608;SDS011;2826;51.354;9.588;2022-12-01T01:13:37;75.30;;;27.57;;
5608;SDS011;2826;51.354;9.588;2022-12-01T01:16:05;73.17;;;29.30;;
5608;SDS011;2826;51.354;9.588;2022-12-01T01:18:33;73.93;;;28.57;;
5608;SDS011;2826;51.354;9.588;2022-12-01T01:21:03;67.37;;;29.57;;
5608;SDS011;2826;51.354;9.588;2022-12-01T01:23:32;74.10;;;29.70;;
5608;SDS011;2826;51.354;9.588;2022-12-01T01:26:00;68.17;;;28.40;;
5608;SDS011;2826;51.354;9.588;2022-12-01T01:28:28;78.77;;;29.50;;
5608;SDS011;2826;51.354;9.588;2022-12-01T01:30:55;77.23;;;29.13;;
5608;SDS011;2826;51.354;9.588;2022-12-01T01:33:22;75.40;;;28.30;;
5608;SDS011;2826;51.354;9.588;2022-12-01T01:35:49;84.50;;;30.97;;
5608;SDS011;2826;51.354;9.588;2022-12-01T01:38:17;80.07;;;31.20;;
5608;SDS011;2826;51.354;9.588;2022-12-01T01:40:44;75.97;;;28.20;;
5608;SDS011;2826;51.354;9.588;2022-12-01T01:43:13;87.43;;;30.33;;
5608;SDS011;2826;51.354;9.588;2022-12-01T01:45:41;68.70;;;28.57;;
5608;SDS011;2826;51.354;9.588;2022-12-01T01:48:08;80.77;;;30.93;;
5608;SDS011;2826;51.354;9.588;2022-12-01T01:50:36;92.90;;;31.10;;
5608;SDS011;2826;51.354;9.588;2022-12-01T01:53:05;85.80;;;31.20;;
5608;SDS011;2826;51.354;9.588;2022-12-01T01:55:37;82.97;;;29.40;;
5608;SDS011;2826;51.354;9.588;2022-12-01T01:58:05;93.90;;;32.77;;
5608;SDS011;2826;51.354;9.588;2022-12-01T02:00:35;81.83;;;31.63;;
5608;SDS011;2826;51.354;9.588;2022-12-01T02:03:04;89.30;;;31.50;;
5608;SDS011;2826;51.354;9.588;2022-12-01T02:05:32;80.20;;;30.17;;
5608;SDS011;2826;51.354;9.588;2022-12-01T02:08:01;88.60;;;33.13;;
5608;SDS011;2826;51.354;9.588;2022-12-01T02:10:32;95.70;;;32.90;;
5608;SDS011;2826;51.354;9.588;2022-12-01T02:13:13;90.47;;;31.60;;
5608;SDS011;2826;51.354;9.588;2022-12-01T02:15:49;87.97;;;33.63;;
5608;SDS011;2826;51.354;9.588;2022-12-01T02:18:24;101.17;;;34.20;;
5608;SDS011;2826;51.354;9.588;2022-12-01T02:24:06;102.80;;;34.00;;
5608;SDS011;2826;51.354;9.588;2022-12-01T02:26:51;96.13;;;33.60;;
5608;SDS011;2826;51.354;9.588;2022-12-01T02:29:29;93.43;;;33.43;;
5608;SDS011;2826;51.354;9.588;2022-12-01T02:32:10;103.67;;;36.73;;
5608;SDS011;2826;51.354;9.588;2022-12-01T02:34:50;95.00;;;34.73;;
5608;SDS011;2826;51.354;9.588;2022-12-01T02:37:23;103.13;;;35.13;;
5608;SDS011;2826;51.354;9.588;2022-12-01T02:39:58;96.53;;;32.97;;
5608;SDS011;2826;51.354;9.588;2022-12-01T02:42:34;99.30;;;35.30;;
5608;SDS011;2826;51.354;9.588;2022-12-01T02:45:19;97.33;;;36.07;;
5608;SDS011;2826;51.354;9.588;2022-12-01T02:47:56;83.07;;;34.10;;
5608;SDS011;2826;51.354;9.588;2022-12-01T02:50:26;99.97;;;37.80;;
5608;SDS011;2826;51.354;9.588;2022-12-01T02:52:56;89.57;;;36.20;;
5608;SDS011;2826;51.354;9.588;2022-12-01T02:55:23;91.73;;;35.47;;
5608;SDS011;2826;51.354;9.588;2022-12-01T02:57:50;83.07;;;33.90;;
5608;SDS011;2826;51.354;9.588;2022-12-01T03:00:17;88.17;;;34.83;;
5608;SDS011;2826;51.354;9.588;2022-12-01T03:02:48;109.23;;;36.70;;
5608;SDS011;2826;51.354;9.588;2022-12-01T03:05:33;97.47;;;34.90;;
5608;SDS011;2826;51.354;9.588;2022-12-01T03:08:11;92.87;;;33.67;;
5608;SDS011;2826;51.354;9.588;2022-12-01T03:10:47;89.80;;;36.30;;
5608;SDS011;2826;51.354;9.588;2022-12-01T03:13:18;98.40;;;36.07;;
5608;SDS011;2826;51.354;9.588;2022-12-01T03:15:55;85.20;;;34.97;;
5608;SDS011;2826;51.354;9.588;2022-12-01T03:18:30;92.27;;;35.20;;
5608;SDS011;2826;51.354;9.588;2022-12-01T03:21:03;98.63;;;34.97;;
5608;SDS011;2826;51.354;9.588;2022-12-01T03:23:34;92.90;;;33.53;;
5608;SDS011;2826;51.354;9.588;2022-12-01T03:26:06;90.10;;;34.90;;
5608;SDS011;2826;51.354;9.588;2022-12-01T03:28:38;78.60;;;32.73;;
5608;SDS011;2826;51.354;9.588;2022-12-01T03:31:12;90.13;;;35.53;;
5608;SDS011;2826;51.354;9.588;2022-12-01T03:33:46;83.50;;;32.60;;
5608;SDS011;2826;51.354;9.588;2022-12-01T03:36:18;99.07;;;33.30;;
5608;SDS011;2826;51.354;9.588;2022-12-01T03:38:49;95.63;;;33.63;;
5608;SDS011;2826;51.354;9.588;2022-12-01T03:41:23;87.33;;;34.87;;
5608;SDS011;2826;51.354;9.588;2022-12-01T03:43:54;92.50;;;35.20;;
5608;SDS011;2826;51.354;9.588;2022-12-01T03:46:28;85.33;;;34.27;;
5608;SDS011;2826;51.354;9.588;2022-12-01T03:49:03;79.30;;;32.47;;
5608;SDS011;2826;51.354;9.588;2022-12-01T03:51:36;77.50;;;32.90;;
5608;SDS011;2826;51.354;9.588;2022-12-01T03:54:10;85.03;;;32.90;;
5608;SDS011;2826;51.354;9.588;2022-12-01T03:56:45;78.33;;;32.07;;
5608;SDS011;2826;51.354;9.588;2022-12-01T03:59:15;81.00;;;34.30;;
5608;SDS011;2826;51.354;9.588;2022-12-01T04:01:45;78.17;;;31.27;;
5608;SDS011;2826;51.354;9.588;2022-12-01T04:04:13;70.00;;;31.53;;
5608;SDS011;2826;51.354;9.588;2022-12-01T04:06:41;66.93;;;29.97;;
5608;SDS011;2826;51.354;9.588;2022-12-01T04:09:11;71.33;;;32.00;;
5608;SDS011;2826;51.354;9.588;2022-12-01T04:11:39;71.70;;;31.00;;
5608;SDS011;2826;51.354;9.588;2022-12-01T04:14:24;76.83;;;32.00;;
5608;SDS011;2826;51.354;9.588;2022-12-01T04:16:51;80.87;;;31.77;;
5608;SDS011;2826;51.354;9.588;2022-12-01T04:19:19;70.37;;;30.80;;
5608;SDS011;2826;51.354;9.588;2022-12-01T04:21:46;71.70;;;31.37;;
5608;SDS011;2826;51.354;9.588;2022-12-01T04:24:13;65.47;;;29.23;;
5608;SDS011;2826;51.354;9.588;2022-12-01T04:26:40;69.70;;;31.40;;
5608;SDS011;2826;51.354;9.588;2022-12-01T04:29:08;65.93;;;30.90;;
5608;SDS011;2826;51.354;9.588;2022-12-01T04:31:36;66.07;;;30.37;;
5608;SDS011;2826;51.354;9.588;2022-12-01T04:34:03;74.27;;;32.33;;
5608;SDS011;2826;51.354;9.588;2022-12-01T04:36:33;64.83;;;29.47;;
5608;SDS011;2826;51.354;9.588;2022-12-01T04:39:00;62.43;;;28.33;;
5608;SDS011;2826;51.354;9.588;2022-12-01T04:41:28;67.50;;;30.30;;
5608;SDS011;2826;51.354;9.588;2022-12-01T04:43:55;69.70;;;31.87;;
5608;SDS011;2826;51.354;9.588;2022-12-01T04:46:22;59.60;;;28.67;;
5608;SDS011;2826;51.354;9.588;2022-12-01T04:48:50;61.87;;;28.93;;
5608;SDS011;2826;51.354;9.588;2022-12-01T04:51:17;62.93;;;27.50;;
5608;SDS011;2826;51.354;9.588;2022-12-01T04:53:47;60.63;;;29.27;;
5608;SDS011;2826;51.354;9.588;2022-12-01T04:56:14;62.63;;;28.70;;
5608;SDS011;2826;51.354;9.588;2022-12-01T04:58:40;66.23;;;29.97;;
5608;SDS011;2826;51.354;9.588;2022-12-01T05:01:08;64.13;;;27.30;;
5608;SDS011;2826;51.354;9.588;2022-12-01T05:03:37;63.90;;;28.20;;
5608;SDS011;2826;51.354;9.588;2022-12-01T05:06:06;62.27;;;28.97;;
5608;SDS011;2826;51.354;9.588;2022-12-01T05:08:34;68.03;;;30.80;;
5608;SDS011;2826;51.354;9.588;2022-12-01T05:11:04;63.70;;;27.30;;
5608;SDS011;2826;51.354;9.588;2022-12-01T05:13:32;68.47;;;29.13;;
5608;SDS011;2826;51.354;9.588;2022-12-01T05:16:03;58.93;;;28.00;;
5608;SDS011;2826;51.354;9.588;2022-12-01T05:18:31;64.87;;;27.87;;
5608;SDS011;2826;51.354;9.588;2022-12-01T05:20:58;64.07;;;29.77;;
5608;SDS011;2826;51.354;9.588;2022-12-01T05:23:25;61.23;;;27.83;;
5608;SDS011;2826;51.354;9.588;2022-12-01T05:25:53;52.43;;;24.20;;
5608;SDS011;2826;51.354;9.588;2022-12-01T05:28:23;57.67;;;27.43;;
5608;SDS011;2826;51.354;9.588;2022-12-01T05:30:51;60.27;;;26.60;;
5608;SDS011;2826;51.354;9.588;2022-12-01T05:33:19;56.60;;;25.87;;
5608;SDS011;2826;51.354;9.588;2022-12-01T05:35:46;58.93;;;26.87;;
5608;SDS011;2826;51.354;9.588;2022-12-01T05:38:13;56.57;;;26.07;;
5608;SDS011;2826;51.354;9.588;2022-12-01T05:40:41;56.23;;;24.73;;
5608;SDS011;2826;51.354;9.588;2022-12-01T05:43:08;61.53;;;27.17;;
5608;SDS011;2826;51.354;9.588;2022-12-01T05:45:36;54.77;;;25.87;;
5608;SDS011;2826;51.354;9.588;2022-12-01T05:48:03;53.03;;;25.90;;
5608;SDS011;2826;51.354;9.588;2022-12-01T05:50:30;50.03;;;23.43;;
5608;SDS011;2826;51.354;9.588;2022-12-01T05:52:57;57.20;;;26.10;;
5608;SDS011;2826;51.354;9.588;2022-12-01T05:55:24;52.67;;;25.23;;
5608;SDS011;2826;51.354;9.588;2022-12-01T05:57:51;55.60;;;27.60;;
5608;SDS011;2826;51.354;9.588;2022-12-01T06:00:18;59.43;;;27.37;;
5608;SDS011;2826;51.354;9.588;2022-12-01T06:02:47;52.00;;;24.27;;
5608;SDS011;2826;51.354;9.588;2022-12-01T06:05:14;55.67;;;25.67;;
5608;SDS011;2826;51.354;9.588;2022-12-01T06:07:41;54.90;;;24.80;;
5608;SDS011;2826;51.354;9.588;2022-12-01T06:10:08;54.30;;;25.57;;
5608;SDS011;2826;51.354;9.588;2022-12-01T06:12:36;53.00;;;23.97;;
5608;SDS011;2826;51.354;9.588;2022-12-01T06:15:04;54.83;;;25.60;;
5608;SDS011;2826;51.354;9.588;2022-12-01T06:17:32;57.80;;;26.03;;
5608;SDS011;2826;51.354;9.588;2022-12-01T06:20:01;50.37;;;25.10;;
5608;SDS011;2826;51.354;9.588;2022-12-01T06:22:29;59.33;;;28.90;;
5608;SDS011;2826;51.354;9.588;2022-12-01T06:24:56;57.47;;;28.10;;
5608;SDS011;2826;51.354;9.588;2022-12-01T06:27:23;59.20;;;27.40;;
5608;SDS011;2826;51.354;9.588;2022-12-01T06:29:50;51.00;;;25.17;;
5608;SDS011;2826;51.354;9.588;2022-12-01T06:32:17;60.47;;;27.23;;
5608;SDS011;2826;51.354;9.588;2022-12-01T06:34:44;52.53;;;25.17;;
5608;SDS011;2826;51.354;9.588;2022-12-01T06:37:12;56.47;;;25.70;;
5608;SDS011;2826;51.354;9.588;2022-12-01T06:39:41;51.90;;;25.80;;
5608;SDS011;2826;51.354;9.588;2022-12-01T06:42:08;55.27;;;25.83;;
5608;SDS011;2826;51.354;9.588;2022-12-01T06:44:35;52.40;;;24.87;;
5608;SDS011;2826;51.354;9.588;2022-12-01T06:47:02;53.80;;;25.00;;
5608;SDS011;2826;51.354;9.588;2022-12-01T06:49:29;56.70;;;27.73;;
5608;SDS011;2826;51.354;9.588;2022-12-01T06:51:56;59.10;;;24.63;;
5608;SDS011;2826;51.354;9.588;2022-12-01T06:54:24;57.87;;;25.83;;
5608;SDS011;2826;51.354;9.588;2022-12-01T06:56:51;52.73;;;24.20;;
5608;SDS011;2826;51.354;9.588;2022-12-01T06:59:18;52.33;;;24.57;;
5608;SDS011;2826;51.354;9.588;2022-12-01T07:01:45;51.97;;;25.70;;
5608;SDS011;2826;51.354;9.588;2022-12-01T07:04:12;50.87;;;24.73;;
5608;SDS011;2826;51.354;9.588;2022-12-01T07:06:39;56.60;;;25.47;;
5608;SDS011;2826;51.354;9.588;2022-12-01T07:09:06;49.00;;;23.70;;
5608;SDS011;2826;51.354;9.588;2022-12-01T07:11:34;52.93;;;24.77;;
5608;SDS011;2826;51.354;9.588;2022-12-01T07:14:01;66.37;;;29.87;;
5608;SDS011;2826;51.354;9.588;2022-12-01T07:16:28;67.00;;;30.37;;
5608;SDS011;2826;51.354;9.588;2022-12-01T07:18:56;70.87;;;30.90;;
5608;SDS011;2826;51.354;9.588;2022-12-01T07:21:24;74.80;;;30.47;;
5608;SDS011;2826;51.354;9.588;2022-12-01T07:23:51;74.93;;;36.90;;
5608;SDS011;2826;51.354;9.588;2022-12-01T07:26:17;57.73;;;27.70;;
5608;SDS011;2826;51.354;9.588;2022-12-01T07:28:46;59.47;;;25.60;;
5608;SDS011;2826;51.354;9.588;2022-12-01T07:31:13;57.03;;;24.10;;
5608;SDS011;2826;51.354;9.588;2022-12-01T07:33:42;51.93;;;23.53;;
5608;SDS011;2826;51.354;9.588;2022-12-01T07:36:10;56.70;;;25.77;;
5608;SDS011;2826;51.354;9.588;2022-12-01T07:38:39;49.87;;;24.63;;
5608;SDS011;2826;51.354;9.588;2022-12-01T07:41:06;55.77;;;24.70;;
5608;SDS011;2826;51.354;9.588;2022-12-01T07:43:34;55.50;;;23.60;;
5608;SDS011;2826;51.354;9.588;2022-12-01T07:46:04;49.90;;;23.60;;
5608;SDS011;2826;51.354;9.588;2022-12-01T07:48:33;50.40;;;24.20;;
5608;SDS011;2826;51.354;9.588;2022-12-01T07:51:00;51.03;;;23.50;;
5608;SDS011;2826;51.354;9.588;2022-12-01T07:53:27;47.67;;;22.07;;
5608;SDS011;2826;51.354;9.588;2022-12-01T07:55:54;47.77;;;23.50;;
5608;SDS011;2826;51.354;9.588;2022-12-01T07:58:20;48.43;;;24.50;;
5608;SDS011;2826;51.354;9.588;2022-12-01T08:00:47;50.40;;;24.23;;
5608;SDS011;2826;51.354;9.588;2022-12-01T08:03:15;55.20;;;24.37;;
5608;SDS011;2826;51.354;9.588;2022-12-01T08:05:42;48.77;;;23.90;;
5608;SDS011;2826;51.354;9.588;2022-12-01T08:08:10;56.33;;;24.27;;
5608;SDS011;2826;51.354;9.588;2022-12-01T08:10:36;49.53;;;23.23;;
5608;SDS011;2826;51.354;9.588;2022-12-01T08:13:03;50.30;;;24.00;;
5608;SDS011;2826;51.354;9.588;2022-12-01T08:15:30;57.63;;;26.27;;
5608;SDS011;2826;51.354;9.588;2022-12-01T08:17:59;46.63;;;23.10;;
5608;SDS011;2826;51.354;9.588;2022-12-01T08:20:28;51.77;;;24.50;;
5608;SDS011;2826;51.354;9.588;2022-12-01T08:22:55;51.30;;;24.07;;
5608;SDS011;2826;51.354;9.588;2022-12-01T08:25:26;52.97;;;23.07;;
5608;SDS011;2826;51.354;9.588;2022-12-01T08:27:52;50.03;;;24.07;;
5608;SDS011;2826;51.354;9.588;2022-12-01T08:30:20;47.40;;;23.00;;
5608;SDS011;2826;51.354;9.588;2022-12-01T08:32:48;52.50;;;22.90;;
5608;SDS011;2826;51.354;9.588;2022-12-01T08:35:15;47.53;;;23.20;;
5608;SDS011;2826;51.354;9.588;2022-12-01T08:37:43;47.80;;;21.73;;
5608;SDS011;2826;51.354;9.588;2022-12-01T08:40:10;50.37;;;24.00;;
5608;SDS011;2826;51.354;9.588;2022-12-01T08:42:37;54.37;;;23.07;;
5608;SDS011;2826;51.354;9.588;2022-12-01T08:45:05;50.10;;;23.53;;
5608;SDS011;2826;51.354;9.588;2022-12-01T08:47:36;48.43;;;24.03;;
5608;SDS011;2826;51.354;9.588;2022-12-01T08:50:03;45.43;;;21.37;;
5608;SDS011;2826;51.354;9.588;2022-12-01T08:52:31;45.17;;;20.63;;
5608;SDS011;2826;51.354;9.588;2022-12-01T08:55:00;43.50;;;21.37;;
5608;SDS011;2826;51.354;9.588;2022-12-01T08:57:27;44.97;;;20.13;;
5608;SDS011;2826;51.354;9.588;2022-12-01T08:59:55;39.03;;;20.40;;
5608;SDS011;2826;51.354;9.588;2022-12-01T09:02:22;49.53;;;20.93;;
5608;SDS011;2826;51.354;9.588;2022-12-01T09:04:49;46.87;;;21.07;;
5608;SDS011;2826;51.354;9.588;2022-12-01T09:07:17;44.33;;;22.50;;
5608;SDS011;2826;51.354;9.588;2022-12-01T09:09:45;39.37;;;19.30;;
5608;SDS011;2826;51.354;9.588;2022-12-01T09:12:13;47.80;;;21.37;;
5608;SDS011;2826;51.354;9.588;2022-12-01T09:14:41;37.37;;;18.80;;
5608;SDS011;2826;51.354;9.588;2022-12-01T09:17:12;37.77;;;17.67;;
5608;SDS011;2826;51.354;9.588;2022-12-01T09:19:39;40.40;;;17.43;;
5608;SDS011;2826;51.354;9.588;2022-12-01T09:22:07;34.43;;;17.13;;
5608;SDS011;2826;51.354;9.588;2022-12-01T09:24:34;31.53;;;16.53;;
5608;SDS011;2826;51.354;9.588;2022-12-01T09:27:01;32.17;;;15.23;;
5608;SDS011;2826;51.354;9.588;2022-12-01T09:29:30;30.80;;;16.10;;
5608;SDS011;2826;51.354;9.588;2022-12-01T09:31:57;35.33;;;17.07;;
5608;SDS011;2826;51.354;9.588;2022-12-01T09:34:26;34.90;;;17.10;;
5608;SDS011;2826;51.354;9.588;2022-12-01T09:36:54;31.13;;;14.07;;
5608;SDS011;2826;51.354;9.588;2022-12-01T09:39:22;30.90;;;14.00;;
5608;SDS011;2826;51.354;9.588;2022-12-01T09:41:50;35.23;;;16.23;;
5608;SDS011;2826;51.354;9.588;2022-12-01T09:44:27;30.27;;;16.07;;
5608;SDS011;2826;51.354;9.588;2022-12-01T09:47:02;29.97;;;13.90;;
5608;SDS011;2826;51.354;9.588;2022-12-01T09:49:40;31.60;;;15.20;;
5608;SDS011;2826;51.354;9.588;2022-12-01T09:52:15;24.87;;;12.97;;
5608;SDS011;2826;51.354;9.588;2022-12-01T09:54:44;25.83;;;11.20;;
5608;SDS011;2826;51.354;9.588;2022-12-01T09:57:14;24.63;;;12.07;;
5608;SDS011;2826;51.354;9.588;2022-12-01T09:59:48;21.30;;;10.60;;
5608;SDS011;2826;51.354;9.588;2022-12-01T10:02:25;29.57;;;13.30;;
5608;SDS011;2826;51.354;9.588;2022-12-01T10:04:59;24.80;;;11.37;;
5608;SDS011;2826;51.354;9.588;2022-12-01T10:07:30;24.80;;;12.43;;
5608;SDS011;2826;51.354;9.588;2022-12-01T10:10:04;27.83;;;14.07;;
5608;SDS011;2826;51.354;9.588;2022-12-01T10:12:33;31.93;;;14.17;;
5608;SDS011;2826;51.354;9.588;2022-12-01T10:17:58;29.60;;;15.50;;
5608;SDS011;2826;51.354;9.588;2022-12-01T10:20:38;30.13;;;15.60;;
5608;SDS011;2826;51.354;9.588;2022-12-01T10:26:08;24.70;;;12.57;;
5608;SDS011;2826;51.354;9.588;2022-12-01T10:28:48;32.13;;;13.67;;
5608;SDS011;2826;51.354;9.588;2022-12-01T10:31:25;31.77;;;15.40;;
5608;SDS011;2826;51.354;9.588;2022-12-01T10:33:59;30.43;;;13.47;;
5608;SDS011;2826;51.354;9.588;2022-12-01T10:36:29;29.63;;;13.93;;
5608;SDS011;2826;51.354;9.588;2022-12-01T10:38:58;27.87;;;14.00;;
5608;SDS011;2826;51.354;9.588;2022-12-01T11:29:05;33.20;;;15.43;;
5608;SDS011;2826;51.354;9.588;2022-12-01T11:31:34;33.20;;;15.60;;
5608;SDS011;2826;51.354;9.588;2022-12-01T11:34:03;30.87;;;16.33;;
5608;SDS011;2826;51.354;9.588;2022-12-01T11:36:32;32.10;;;15.20;;
5608;SDS011;2826;51.354;9.588;2022-12-01T11:39:03;33.73;;;14.07;;
5608;SDS011;2826;51.354;9.588;2022-12-01T11:41:32;33.50;;;16.43;;
5608;SDS011;2826;51.354;9.588;2022-12-01T11:44:02;37.53;;;16.53;;
5608;SDS011;2826;51.354;9.588;2022-12-01T11:46:40;34.50;;;15.83;;
5608;SDS011;2826;51.354;9.588;2022-12-01T11:49:09;38.03;;;17.30;;
5608;SDS011;2826;51.354;9.588;2022-12-01T11:51:42;34.10;;;16.50;;
5608;SDS011;2826;51.354;9.588;2022-12-01T11:54:13;32.73;;;16.40;;
5608;SDS011;2826;51.354;9.588;2022-12-01T11:56:42;39.87;;;15.43;;
5608;SDS011;2826;51.354;9.588;2022-12-01T11:59:13;32.63;;;15.07;;
5608;SDS011;2826;51.354;9.588;2022-12-01T12:01:49;30.33;;;15.70;;
5608;SDS011;2826;51.354;9.588;2022-12-01T12:04:28;27.93;;;14.07;;
5608;SDS011;2826;51.354;9.588;2022-12-01T12:07:09;30.93;;;14.50;;
5608;SDS011;2826;51.354;9.588;2022-12-01T12:09:50;37.63;;;15.33;;
5608;SDS011;2826;51.354;9.588;2022-12-01T12:12:29;33.63;;;17.07;;
5608;SDS011;2826;51.354;9.588;2022-12-01T12:15:13;37.97;;;15.70;;
5608;SDS011;2826;51.354;9.588;2022-12-01T12:17:51;34.93;;;17.27;;
5608;SDS011;2826;51.354;9.588;2022-12-01T12:20:29;36.53;;;17.67;;
5608;SDS011;2826;51.354;9.588;2022-12-01T12:23:17;34.30;;;15.50;;
5608;SDS011;2826;51.354;9.588;2022-12-01T12:26:00;33.10;;;15.73;;
5608;SDS011;2826;51.354;9.588;2022-12-01T12:28:38;35.50;;;16.83;;
5608;SDS011;2826;51.354;9.588;2022-12-01T12:31:21;32.50;;;17.13;;
5608;SDS011;2826;51.354;9.588;2022-12-01T12:34:02;35.80;;;17.07;;
5608;SDS011;2826;51.354;9.588;2022-12-01T12:36:41;34.67;;;16.73;;
5608;SDS011;2826;51.354;9.588;2022-12-01T12:39:21;36.37;;;16.70;;
5608;SDS011;2826;51.354;9.588;2022-12-01T12:41:58;37.00;;;17.10;;
5608;SDS011;2826;51.354;9.588;2022-12-01T12:47:48;42.10;;;18.60;;
5608;SDS011;2826;51.354;9.588;2022-12-01T12:50:30;38.23;;;17.23;;
5608;SDS011;2826;51.354;9.588;2022-12-01T12:53:07;36.90;;;17.00;;
5608;SDS011;2826;51.354;9.588;2022-12-01T12:55:42;36.07;;;17.27;;
5608;SDS011;2826;51.354;9.588;2022-12-01T12:58:13;40.93;;;18.90;;
5608;SDS011;2826;51.354;9.588;2022-12-01T13:00:47;42.30;;;18.10;;
5608;SDS011;2826;51.354;9.588;2022-12-01T13:03:20;42.57;;;17.90;;
5608;SDS011;2826;51.354;9.588;2022-12-01T13:05:52;42.63;;;19.47;;
5608;SDS011;2826;51.354;9.588;2022-12-01T13:08:24;40.27;;;17.63;;
5608;SDS011;2826;51.354;9.588;2022-12-01T13:10:56;45.17;;;19.80;;
5608;SDS011;2826;51.354;9.588;2022-12-01T13:13:29;38.43;;;18.23;;
5608;SDS011;2826;51.354;9.588;2022-12-01T13:16:02;41.30;;;18.90;;
5608;SDS011;2826;51.354;9.588;2022-12-01T13:18:35;38.63;;;17.43;;
5608;SDS011;2826;51.354;9.588;2022-12-01T13:21:08;46.73;;;19.40;;
5608;SDS011;2826;51.354;9.588;2022-12-01T13:23:41;37.60;;;18.63;;
5608;SDS011;2826;51.354;9.588;2022-12-01T13:26:09;42.40;;;16.17;;
5608;SDS011;2826;51.354;9.588;2022-12-01T13:28:38;46.10;;;19.50;;
5608;SDS011;2826;51.354;9.588;2022-12-01T13:31:09;44.27;;;17.97;;
5608;SDS011;2826;51.354;9.588;2022-12-01T13:33:43;37.00;;;18.43;;
5608;SDS011;2826;51.354;9.588;2022-12-01T13:36:18;43.87;;;16.87;;
5608;SDS011;2826;51.354;9.588;2022-12-01T13:38:51;42.73;;;18.73;;
5608;SDS011;2826;51.354;9.588;2022-12-01T13:41:23;47.00;;;17.60;;
5608;SDS011;2826;51.354;9.588;2022-12-01T13:43:54;41.70;;;18.50;;
5608;SDS011;2826;51.354;9.588;2022-12-01T13:46:25;43.90;;;18.73;;
5608;SDS011;2826;51.354;9.588;2022-12-01T13:48:55;47.33;;;20.13;;
5608;SDS011;2826;51.354;9.588;2022-12-01T13:51:24;47.07;;;19.40;;
5608;SDS011;2826;51.354;9.588;2022-12-01T13:54:26;41.43;;;17.73;;
5608;SDS011;2826;51.354;9.588;2022-12-01T13:57:14;42.13;;;17.40;;
5608;SDS011;2826;51.354;9.588;2022-12-01T14:00:04;42.17;;;17.80;;
5608;SDS011;2826;51.354;9.588;2022-12-01T14:02:49;44.27;;;18.93;;
5608;SDS011;2826;51.354;9.588;2022-12-01T14:05:54;47.67;;;18.50;;
5608;SDS011;2826;51.354;9.588;2022-12-01T14:08:31;40.53;;;17.00;;
5608;SDS011;2826;51.354;9.588;2022-12-01T14:11:01;51.97;;;20.87;;
5608;SDS011;2826;51.354;9.588;2022-12-01T14:13:32;46.57;;;21.20;;
5608;SDS011;2826;51.354;9.588;2022-12-01T14:16:11;44.80;;;19.23;;
5608;SDS011;2826;51.354;9.588;2022-12-01T14:18:38;42.00;;;19.33;;
5608;SDS011;2826;51.354;9.588;2022-12-01T14:21:10;45.60;;;18.90;;
5608;SDS011;2826;51.354;9.588;2022-12-01T14:23:39;43.87;;;18.80;;
5608;SDS011;2826;51.354;9.588;2022-12-01T14:26:25;41.77;;;16.33;;
5608;SDS011;2826;51.354;9.588;2022-12-01T14:34:53;44.67;;;18.43;;
5608;SDS011;2826;51.354;9.588;2022-12-01T14:37:26;46.47;;;20.77;;
5608;SDS011;2826;51.354;9.588;2022-12-01T14:40:05;43.40;;;17.90;;
5608;SDS011;2826;51.354;9.588;2022-12-01T14:42:38;46.80;;;20.10;;
5608;SDS011;2826;51.354;9.588;2022-12-01T14:45:26;46.57;;;18.07;;
5608;SDS011;2826;51.354;9.588;2022-12-01T14:47:59;39.07;;;18.10;;
5608;SDS011;2826;51.354;9.588;2022-12-01T14:50:30;43.37;;;19.40;;
5608;SDS011;2826;51.354;9.588;2022-12-01T14:53:05;42.03;;;16.67;;
5608;SDS011;2826;51.354;9.588;2022-12-01T14:55:41;45.53;;;19.60;;
5608;SDS011;2826;51.354;9.588;2022-12-01T14:58:16;46.37;;;18.67;;
5608;SDS011;2826;51.354;9.588;2022-12-01T15:03:40;37.77;;;17.17;;
5608;SDS011;2826;51.354;9.588;2022-12-01T15:06:09;54.03;;;22.47;;
5608;SDS011;2826;51.354;9.588;2022-12-01T15:08:44;46.33;;;19.40;;
5608;SDS011;2826;51.354;9.588;2022-12-01T15:11:12;43.63;;;19.00;;
5608;SDS011;2826;51.354;9.588;2022-12-01T15:13:46;43.87;;;19.63;;
5608;SDS011;2826;51.354;9.588;2022-12-01T15:16:15;47.20;;;19.30;;
5608;SDS011;2826;51.354;9.588;2022-12-01T15:18:44;49.70;;;20.30;;
5608;SDS011;2826;51.354;9.588;2022-12-01T15:21:12;43.53;;;18.70;;
5608;SDS011;2826;51.354;9.588;2022-12-01T15:23:57;52.57;;;19.00;;
5608;SDS011;2826;51.354;9.588;2022-12-01T15:26:27;48.53;;;20.10;;
5608;SDS011;2826;51.354;9.588;2022-12-01T15:29:05;46.97;;;19.77;;
5608;SDS011;2826;51.354;9.588;2022-12-01T15:31:41;46.17;;;20.97;;
5608;SDS011;2826;51.354;9.588;2022-12-01T15:34:10;50.03;;;20.60;;
5608;SDS011;2826;51.354;9.588;2022-12-01T15:36:41;43.77;;;18.50;;
5608;SDS011;2826;51.354;9.588;2022-12-01T15:39:11;49.30;;;20.20;;
5608;SDS011;2826;51.354;9.588;2022-12-01T15:41:41;51.03;;;19.33;;
5608;SDS011;2826;51.354;9.588;2022-12-01T15:44:16;44.40;;;20.63;;
5608;SDS011;2826;51.354;9.588;2022-12-01T15:46:45;51.57;;;20.87;;
5608;SDS011;2826;51.354;9.588;2022-12-01T15:49:16;44.80;;;16.73;;
5608;SDS011;2826;51.354;9.588;2022-12-01T15:51:44;48.97;;;19.23;;
5608;SDS011;2826;51.354;9.588;2022-12-01T15:54:19;45.13;;;18.80;;
5608;SDS011;2826;51.354;9.588;2022-12-01T15:56:50;52.90;;;21.63;;
5608;SDS011;2826;51.354;9.588;2022-12-01T15:59:23;44.63;;;18.53;;
5608;SDS011;2826;51.354;9.588;2022-12-01T16:01:54;46.27;;;19.30;;
5608;SDS011;2826;51.354;9.588;2022-12-01T16:04:22;58.13;;;21.97;;
5608;SDS011;2826;51.354;9.588;2022-12-01T16:06:53;49.03;;;21.27;;
5608;SDS011;2826;51.354;9.588;2022-12-01T16:09:26;49.17;;;21.03;;
5608;SDS011;2826;51.354;9.588;2022-12-01T16:12:03;46.70;;;20.17;;
5608;SDS011;2826;51.354;9.588;2022-12-01T16:14:33;53.10;;;19.70;;
5608;SDS011;2826;51.354;9.588;2022-12-01T16:17:00;51.50;;;20.33;;
5608;SDS011;2826;51.354;9.588;2022-12-01T16:19:28;50.30;;;19.17;;